createdAt,value
2019-03-04T00:00:52.408Z,78.13
2019-03-04T00:01:52.393Z,78.34
2019-03-04T00:02:52.455Z,78.13
2019-03-04T00:03:52.360Z,78.34
2019-03-04T00:04:52.372Z,77.93
2019-03-04T00:05:52.335Z,77.72
2019-03-04T00:06:52.397Z,78.34
2019-03-04T00:07:52.340Z,77.72
2019-03-04T00:08:52.318Z,77.62
2019-03-04T00:09:52.313Z,78.64
2019-03-04T00:10:52.276Z,78.34
2019-03-04T00:11:52.302Z,78.44
2019-03-04T00:12:52.319Z,77.42
2019-03-04T00:13:52.262Z,78.23
2019-03-04T00:14:52.313Z,78.13
2019-03-04T00:15:52.244Z,78.13
2019-03-04T00:16:52.253Z,77.11
2019-03-04T00:17:52.244Z,77.72
2019-03-04T00:18:52.200Z,77.42
2019-03-04T00:19:52.205Z,77.83
2019-03-04T00:20:52.189Z,77.52
2019-03-04T00:21:52.180Z,77.31
2019-03-04T00:22:52.157Z,77.31
2019-03-04T00:23:52.173Z,77.08
2019-03-04T00:24:52.167Z,77.48
2019-03-04T00:25:52.131Z,77.18
2019-03-04T00:26:52.118Z,76.97
2019-03-04T00:27:52.101Z,77.48
2019-03-04T00:28:52.087Z,77.38
2019-03-04T00:29:52.113Z,77.22
2019-03-04T00:30:52.074Z,77.28
2019-03-04T00:31:52.068Z,77.48
2019-03-04T00:32:52.115Z,77.22
2019-03-04T00:33:52.086Z,77.22
2019-03-04T00:34:52.033Z,77.18
2019-03-04T00:35:52.054Z,76.87
2019-03-04T00:36:52.016Z,77.11
2019-03-04T00:37:52.007Z,76.90
2019-03-04T00:38:52.022Z,77.08
2019-03-04T00:39:52.011Z,76.87
2019-03-04T00:40:51.975Z,77.08
2019-03-04T00:41:51.951Z,76.50
2019-03-04T00:42:51.921Z,76.06
2019-03-04T00:43:51.983Z,76.46
2019-03-04T00:44:51.953Z,76.67
2019-03-04T00:45:51.923Z,76.36
2019-03-04T00:46:51.906Z,76.26
2019-03-04T00:47:51.877Z,76.46
2019-03-04T00:48:51.946Z,76.36
2019-03-04T00:49:51.849Z,76.16
2019-03-04T00:50:51.834Z,76.06
2019-03-04T00:51:51.846Z,75.85
2019-03-04T00:52:51.838Z,75.65
2019-03-04T00:53:51.815Z,75.44
2019-03-04T00:54:52.111Z,75.54
2019-03-04T00:55:51.783Z,75.24
2019-03-04T00:56:51.790Z,75.65
2019-03-04T00:57:51.778Z,75.65
2019-03-04T00:58:51.761Z,75.75
2019-03-04T00:59:51.761Z,75.65
2019-03-04T01:00:51.770Z,75.24
2019-03-04T01:01:51.731Z,75.13
2019-03-04T01:02:51.727Z,75.34
2019-03-04T01:03:51.744Z,75.04
2019-03-04T01:04:51.757Z,75.34
2019-03-04T01:05:51.676Z,75.24
2019-03-04T01:06:51.686Z,75.24
2019-03-04T01:07:51.651Z,75.24
2019-03-04T01:08:51.690Z,75.04
2019-03-04T01:09:51.675Z,75.13
2019-03-04T01:10:51.619Z,74.93
2019-03-04T01:11:51.607Z,75.04
2019-03-04T01:12:51.613Z,74.73
2019-03-04T01:13:51.649Z,74.73
2019-03-04T01:14:51.602Z,74.93
2019-03-04T01:15:51.598Z,75.44
2019-03-04T01:16:51.592Z,74.73
2019-03-04T01:17:51.580Z,75.24
2019-03-04T01:18:51.634Z,75.34
2019-03-04T01:19:51.632Z,75.24
2019-03-04T01:20:51.544Z,74.97
2019-03-04T01:21:51.543Z,75.04
2019-03-04T01:22:51.526Z,74.52
2019-03-04T01:23:51.658Z,75.13
2019-03-04T01:24:51.515Z,75.24
2019-03-04T01:25:51.593Z,75.13
2019-03-04T01:26:51.478Z,74.93
2019-03-04T01:27:51.449Z,74.83
2019-03-04T01:28:51.437Z,75.13
2019-03-04T01:29:51.436Z,74.97
2019-03-04T01:30:51.646Z,74.83
2019-03-04T01:31:51.401Z,75.13
2019-03-04T01:32:51.440Z,75.04
2019-03-04T01:33:51.409Z,74.93
2019-03-04T01:34:51.373Z,75.13
2019-03-04T01:35:51.364Z,75.04
2019-03-04T01:36:51.388Z,74.73
2019-03-04T01:37:51.387Z,74.93
2019-03-04T01:38:51.356Z,74.73
2019-03-04T01:39:51.336Z,74.83
2019-03-04T01:40:51.326Z,75.13
2019-03-04T01:41:51.333Z,75.04
2019-03-04T01:42:51.285Z,74.63
2019-03-04T01:43:51.267Z,75.24
2019-03-04T01:44:51.308Z,75.13
2019-03-04T01:45:51.311Z,74.93
2019-03-04T01:46:51.313Z,74.83
2019-03-04T01:47:51.233Z,74.83
2019-03-04T01:48:51.218Z,74.83
2019-03-04T01:49:51.210Z,74.83
2019-03-04T01:50:51.309Z,74.83
2019-03-04T01:51:51.171Z,74.83
2019-03-04T01:52:51.175Z,74.83
2019-03-04T01:53:51.142Z,74.83
2019-03-04T01:54:51.129Z,74.73
2019-03-04T01:55:51.161Z,74.73
2019-03-04T01:56:51.157Z,74.93
2019-03-04T01:57:51.129Z,75.04
2019-03-04T01:58:51.111Z,74.93
2019-03-04T01:59:51.100Z,74.73
2019-03-04T02:00:51.086Z,75.04
2019-03-04T02:01:51.081Z,75.04
2019-03-04T02:02:51.162Z,74.83
2019-03-04T02:03:51.062Z,74.83
2019-03-04T02:04:51.039Z,74.83
2019-03-04T02:05:51.030Z,75.04
2019-03-04T02:06:50.999Z,74.93
2019-03-04T02:07:51.022Z,74.83
2019-03-04T02:08:51.022Z,74.83
2019-03-04T02:09:50.998Z,75.04
2019-03-04T02:10:50.958Z,74.73
2019-03-04T02:11:50.949Z,74.73
2019-03-04T02:12:50.984Z,74.73
2019-03-04T02:13:51.459Z,74.83
2019-03-04T02:14:50.940Z,74.93
2019-03-04T02:15:50.928Z,74.83
2019-03-04T02:16:50.943Z,75.04
2019-03-04T02:17:50.945Z,74.73
2019-03-04T02:18:50.888Z,74.93
2019-03-04T02:19:50.859Z,74.97
2019-03-04T02:20:50.870Z,74.87
2019-03-04T02:21:50.860Z,74.63
2019-03-04T02:22:50.877Z,75.04
2019-03-04T02:23:50.844Z,75.04
2019-03-04T02:24:50.843Z,75.04
2019-03-04T02:25:50.833Z,75.04
2019-03-04T02:26:50.821Z,74.83
2019-03-04T02:27:50.848Z,74.93
2019-03-04T02:28:50.788Z,74.93
2019-03-04T02:29:50.813Z,74.73
2019-03-04T02:30:50.757Z,74.83
2019-03-04T02:31:50.732Z,75.04
2019-03-04T02:32:50.768Z,75.13
2019-03-04T02:33:50.729Z,74.97
2019-03-04T02:34:50.740Z,75.17
2019-03-04T02:35:50.718Z,74.11
2019-03-04T02:36:50.721Z,74.01
2019-03-04T02:37:50.701Z,73.94
2019-03-04T02:38:50.701Z,73.81
2019-03-04T02:39:50.662Z,74.11
2019-03-04T02:40:50.659Z,74.11
2019-03-04T02:41:50.643Z,73.91
2019-03-04T02:42:50.648Z,74.01
2019-03-04T02:43:50.653Z,73.81
2019-03-04T02:44:50.623Z,73.71
2019-03-04T02:45:50.600Z,73.60
2019-03-04T02:46:50.608Z,73.10
2019-03-04T02:47:50.657Z,73.71
2019-03-04T02:48:50.587Z,73.81
2019-03-04T02:49:50.556Z,73.60
2019-03-04T02:50:50.560Z,73.10
2019-03-04T02:51:50.553Z,73.50
2019-03-04T02:52:50.551Z,73.40
2019-03-04T02:53:50.546Z,73.30
2019-03-04T02:54:50.504Z,73.40
2019-03-04T02:55:50.511Z,73.19
2019-03-04T02:56:50.525Z,73.10
2019-03-04T02:57:50.463Z,72.99
2019-03-04T02:58:50.553Z,72.99
2019-03-04T02:59:50.462Z,72.79
2019-03-04T03:00:50.434Z,73.30
2019-03-04T03:01:50.454Z,73.19
2019-03-04T03:02:50.442Z,72.99
2019-03-04T03:03:50.431Z,72.89
2019-03-04T03:04:50.491Z,72.79
2019-03-04T03:05:50.397Z,73.19
2019-03-04T03:06:50.383Z,72.89
2019-03-04T03:07:50.402Z,72.89
2019-03-04T03:08:50.360Z,72.99
2019-03-04T03:09:50.353Z,72.99
2019-03-04T03:10:50.371Z,72.79
2019-03-04T03:11:50.316Z,73.19
2019-03-04T03:12:50.320Z,72.89
2019-03-04T03:13:50.311Z,72.69
2019-03-04T03:14:50.685Z,72.69
2019-03-04T03:15:50.266Z,72.69
2019-03-04T03:16:50.276Z,72.99
2019-03-04T03:17:50.263Z,73.10
2019-03-04T03:18:50.254Z,73.10
2019-03-04T03:19:50.228Z,72.99
2019-03-04T03:20:50.216Z,72.99
2019-03-04T03:21:50.228Z,72.99
2019-03-04T03:22:50.170Z,72.99
2019-03-04T03:23:50.157Z,73.19
2019-03-04T03:24:50.223Z,72.99
2019-03-04T03:25:50.182Z,72.82
2019-03-04T03:26:50.141Z,73.40
2019-03-04T03:27:50.146Z,73.10
2019-03-04T03:28:50.130Z,72.99
2019-03-04T03:29:52.035Z,72.79
2019-03-04T03:32:05.853Z,73.23
2019-03-04T03:33:05.779Z,73.50
2019-03-04T03:34:05.815Z,72.17
2019-03-04T03:35:08.287Z,72.28
2019-03-04T03:36:05.755Z,71.77
2019-03-04T03:37:05.729Z,71.97
2019-03-04T03:38:05.723Z,72.17
2019-03-04T03:39:05.767Z,72.31
2019-03-04T03:40:05.702Z,72.17
2019-03-04T03:41:05.704Z,72.28
2019-03-04T03:42:05.654Z,71.97
2019-03-04T03:43:05.658Z,72.07
2019-03-04T03:44:05.655Z,72.38
2019-03-04T03:45:05.674Z,71.77
2019-03-04T03:46:05.656Z,72.58
2019-03-04T03:47:05.617Z,73.54
2019-03-04T03:48:05.638Z,73.54
2019-03-04T03:49:05.602Z,73.03
2019-03-04T03:50:05.583Z,72.62
2019-03-04T03:51:05.579Z,72.99
2019-03-04T03:52:05.661Z,72.92
2019-03-04T03:53:05.585Z,73.23
2019-03-04T03:54:05.546Z,73.23
2019-03-04T03:55:05.598Z,72.92
2019-03-04T03:56:05.546Z,73.23
2019-03-04T03:57:05.507Z,73.54
2019-03-04T03:58:05.508Z,72.92
2019-03-04T03:59:05.539Z,72.72
2019-03-04T04:00:05.509Z,73.13
2019-03-04T04:01:05.490Z,73.03
2019-03-04T04:02:05.491Z,73.03
2019-03-04T04:03:05.482Z,73.13
2019-03-04T04:04:05.429Z,72.82
2019-03-04T04:05:05.421Z,73.03
2019-03-04T04:06:05.471Z,72.82
2019-03-04T04:07:05.401Z,73.33
2019-03-04T04:08:05.383Z,73.33
2019-03-04T04:09:05.386Z,72.82
2019-03-04T04:10:05.375Z,72.92
2019-03-04T04:11:05.367Z,72.82
2019-03-04T04:12:05.379Z,73.23
2019-03-04T04:13:05.370Z,73.44
2019-03-04T04:14:05.319Z,73.13
2019-03-04T04:15:05.311Z,73.44
2019-03-04T04:16:05.344Z,73.23
2019-03-04T04:17:05.294Z,73.44
2019-03-04T04:18:05.282Z,73.23
2019-03-04T04:19:05.277Z,73.44
2019-03-04T04:20:05.263Z,73.44
2019-03-04T04:21:05.279Z,73.03
2019-03-04T04:22:05.242Z,73.23
2019-03-04T04:23:05.225Z,73.03
2019-03-04T04:24:05.211Z,72.92
2019-03-04T04:25:05.207Z,72.62
2019-03-04T04:26:05.212Z,73.54
2019-03-04T04:27:05.219Z,73.44
2019-03-04T04:28:05.167Z,72.41
2019-03-04T04:29:05.191Z,72.24
2019-03-04T04:30:05.136Z,72.21
2019-03-04T04:31:05.140Z,72.31
2019-03-04T04:32:05.179Z,71.80
2019-03-04T04:33:05.118Z,72.00
2019-03-04T04:34:05.079Z,71.70
2019-03-04T04:35:05.089Z,71.70
2019-03-04T04:36:05.086Z,72.00
2019-03-04T04:37:05.074Z,71.80
2019-03-04T04:38:05.065Z,71.91
2019-03-04T04:39:05.042Z,72.00
2019-03-04T04:40:05.022Z,71.91
2019-03-04T04:41:05.026Z,72.11
2019-03-04T04:42:05.017Z,71.70
2019-03-04T04:43:05.028Z,71.50
2019-03-04T04:44:04.999Z,71.59
2019-03-04T04:45:05.009Z,71.50
2019-03-04T04:46:05.012Z,72.00
2019-03-04T04:47:05.023Z,71.29
2019-03-04T04:48:05.018Z,71.09
2019-03-04T04:49:04.956Z,71.19
2019-03-04T04:50:04.922Z,70.98
2019-03-04T04:51:04.895Z,70.95
2019-03-04T04:52:04.963Z,70.98
2019-03-04T04:53:04.921Z,70.75
2019-03-04T04:54:04.881Z,70.47
2019-03-04T04:55:04.868Z,69.82
2019-03-04T04:56:04.878Z,70.03
2019-03-04T04:57:04.877Z,69.73
2019-03-04T04:58:04.884Z,70.14
2019-03-04T04:59:04.821Z,70.14
2019-03-04T05:00:04.847Z,70.03
2019-03-04T05:01:04.808Z,69.62
2019-03-04T05:02:04.797Z,69.73
2019-03-04T05:03:04.988Z,69.52
2019-03-04T05:04:04.778Z,69.62
2019-03-04T05:05:04.755Z,69.11
2019-03-04T05:06:04.750Z,69.21
2019-03-04T05:07:04.739Z,68.80
2019-03-04T05:08:04.730Z,68.60
2019-03-04T05:09:04.743Z,68.91
2019-03-04T05:10:04.701Z,68.80
2019-03-04T05:11:04.764Z,68.16
2019-03-04T05:12:04.679Z,68.16
2019-03-04T05:13:04.726Z,68.37
2019-03-04T05:14:04.656Z,68.16
2019-03-04T05:15:04.701Z,67.76
2019-03-04T05:16:04.662Z,68.16
2019-03-04T05:17:04.653Z,67.35
2019-03-04T05:18:04.611Z,67.96
2019-03-04T05:19:04.678Z,67.45
2019-03-04T05:20:04.615Z,67.35
2019-03-04T05:21:04.584Z,67.04
2019-03-04T05:22:04.568Z,67.45
2019-03-04T05:23:04.560Z,67.45
2019-03-04T05:24:04.548Z,66.94
2019-03-04T05:25:04.571Z,67.04
2019-03-04T05:26:04.536Z,66.94
2019-03-04T05:27:04.519Z,66.60
2019-03-04T05:28:04.501Z,66.94
2019-03-04T05:29:04.509Z,66.94
2019-03-04T05:30:04.463Z,66.09
2019-03-04T05:31:04.455Z,65.89
2019-03-04T05:32:04.490Z,65.28
2019-03-04T05:33:04.465Z,65.28
2019-03-04T05:34:04.454Z,64.76
2019-03-04T05:35:04.426Z,64.97
2019-03-04T05:36:04.415Z,65.07
2019-03-04T05:37:04.415Z,64.97
2019-03-04T05:38:04.395Z,64.87
2019-03-04T05:39:04.394Z,64.56
2019-03-04T05:40:04.353Z,64.66
2019-03-04T05:41:04.427Z,64.66
2019-03-04T05:42:04.380Z,63.95
2019-03-04T05:43:04.370Z,63.54
2019-03-04T05:44:04.334Z,63.44
2019-03-04T05:45:04.332Z,64.15
2019-03-04T05:46:04.294Z,64.05
2019-03-04T05:47:04.326Z,64.05
2019-03-04T05:48:04.281Z,63.44
2019-03-04T05:49:04.276Z,63.23
2019-03-04T05:50:04.295Z,63.54
2019-03-04T05:51:04.318Z,63.34
2019-03-04T05:52:04.216Z,63.13
2019-03-04T05:53:04.254Z,63.44
2019-03-04T05:54:04.224Z,63.03
2019-03-04T05:55:04.238Z,62.82
2019-03-04T05:56:04.228Z,63.95
2019-03-04T05:57:04.218Z,63.34
2019-03-04T05:58:04.195Z,63.54
2019-03-04T05:59:04.186Z,62.70
2019-03-04T06:00:04.221Z,63.13
2019-03-04T06:01:04.127Z,63.34
2019-03-04T06:02:04.164Z,63.54
2019-03-04T06:03:04.140Z,63.23
2019-03-04T06:04:04.112Z,63.13
2019-03-04T06:05:04.079Z,63.64
2019-03-04T06:06:04.187Z,63.23
2019-03-04T06:07:04.103Z,63.03
2019-03-04T06:08:04.092Z,62.93
2019-03-04T06:09:04.090Z,63.10
2019-03-04T06:10:04.054Z,62.82
2019-03-04T06:11:04.097Z,62.52
2019-03-04T06:12:04.049Z,62.52
2019-03-04T06:13:04.016Z,62.82
2019-03-04T06:14:04.027Z,62.93
2019-03-04T06:15:04.018Z,63.10
2019-03-04T06:16:04.039Z,63.44
2019-03-04T06:17:03.997Z,63.03
2019-03-04T06:18:04.018Z,64.36
2019-03-04T06:19:04.001Z,64.76
2019-03-04T06:20:03.978Z,64.32
2019-03-04T06:21:03.966Z,64.25
2019-03-04T06:22:03.963Z,64.56
2019-03-04T06:23:03.933Z,64.25
2019-03-04T06:24:03.967Z,65.28
2019-03-04T06:25:03.902Z,66.70
2019-03-04T06:26:03.968Z,67.32
2019-03-04T06:27:03.883Z,69.96
2019-03-04T06:28:03.875Z,70.68
2019-03-04T06:29:03.864Z,71.63
2019-03-04T06:30:03.941Z,69.90
2019-03-04T06:31:03.818Z,69.73
2019-03-04T06:32:03.807Z,70.14
2019-03-04T06:33:03.818Z,70.14
2019-03-04T06:34:03.787Z,68.84
2019-03-04T06:35:03.816Z,69.76
2019-03-04T06:36:03.969Z,68.84
2019-03-04T06:37:03.767Z,69.15
2019-03-04T06:38:03.743Z,68.87
2019-03-04T06:39:03.748Z,67.65
2019-03-04T06:40:03.753Z,68.70
2019-03-04T06:41:03.724Z,68.80
2019-03-04T06:42:03.747Z,68.90
2019-03-04T06:43:03.665Z,68.29
2019-03-04T06:44:03.697Z,67.68
2019-03-04T06:45:03.663Z,68.08
2019-03-04T06:46:03.675Z,68.73
2019-03-04T06:47:03.710Z,68.42
2019-03-04T06:48:03.636Z,68.32
2019-03-04T06:49:03.615Z,67.71
2019-03-04T06:50:03.606Z,68.22
2019-03-04T06:51:03.648Z,68.12
2019-03-04T06:52:03.566Z,67.30
2019-03-04T06:53:03.569Z,67.50
2019-03-04T06:54:03.610Z,68.01
2019-03-04T06:55:03.551Z,68.22
2019-03-04T06:56:03.595Z,68.84
2019-03-04T06:57:03.565Z,68.84
2019-03-04T06:58:03.501Z,67.54
2019-03-04T06:59:03.505Z,67.74
2019-03-04T07:00:03.493Z,68.15
2019-03-04T07:01:03.485Z,67.94
2019-03-04T07:02:03.510Z,67.43
2019-03-04T07:03:03.502Z,66.82
2019-03-04T07:04:03.438Z,66.82
2019-03-04T07:05:03.429Z,67.02
2019-03-04T07:06:03.436Z,67.43
2019-03-04T07:07:03.433Z,67.57
2019-03-04T07:08:03.424Z,67.60
2019-03-04T07:09:03.446Z,67.77
2019-03-04T07:10:03.371Z,67.36
2019-03-04T07:11:03.381Z,67.26
2019-03-04T07:12:03.423Z,67.70
2019-03-04T07:13:03.359Z,67.70
2019-03-04T07:14:03.358Z,67.40
2019-03-04T07:15:03.310Z,66.98
2019-03-04T07:16:03.321Z,66.37
2019-03-04T07:17:03.314Z,66.98
2019-03-04T07:18:03.346Z,67.08
2019-03-04T07:19:03.286Z,66.47
2019-03-04T07:20:03.308Z,66.37
2019-03-04T07:21:03.266Z,65.65
2019-03-04T07:22:03.256Z,65.75
2019-03-04T07:23:03.335Z,65.75
2019-03-04T07:24:03.237Z,65.65
2019-03-04T07:25:03.240Z,65.96
2019-03-04T07:26:03.250Z,65.55
2019-03-04T07:27:03.198Z,65.86
2019-03-04T07:28:03.172Z,65.14
2019-03-04T07:29:03.237Z,64.53
2019-03-04T07:30:03.165Z,64.65
2019-03-04T07:31:03.155Z,65.27
2019-03-04T07:32:03.152Z,65.07
2019-03-04T07:33:03.161Z,64.97
2019-03-04T07:34:03.191Z,64.56
2019-03-04T07:35:03.126Z,64.97
2019-03-04T07:36:03.105Z,64.73
2019-03-04T07:37:03.131Z,64.97
2019-03-04T07:38:03.115Z,64.86
2019-03-04T07:39:03.067Z,64.65
2019-03-04T07:40:03.055Z,65.07
2019-03-04T07:41:03.067Z,65.34
2019-03-04T07:42:03.058Z,65.89
2019-03-04T07:43:03.009Z,65.78
2019-03-04T07:44:03.074Z,65.27
2019-03-04T07:45:03.001Z,66.09
2019-03-04T07:46:03.039Z,65.41
2019-03-04T07:47:03.007Z,65.58
2019-03-04T07:48:02.968Z,66.09
2019-03-04T07:49:03.007Z,66.09
2019-03-04T07:50:03.028Z,66.09
2019-03-04T07:51:02.993Z,66.33
2019-03-04T07:52:02.914Z,66.43
2019-03-04T07:53:02.917Z,66.60
2019-03-04T07:54:02.939Z,67.05
2019-03-04T07:55:02.878Z,67.22
2019-03-04T07:56:02.887Z,67.35
2019-03-04T07:57:02.891Z,67.02
2019-03-04T07:58:02.844Z,67.32
2019-03-04T07:59:02.854Z,67.63
2019-03-04T08:00:02.956Z,67.63
2019-03-04T08:01:02.915Z,67.32
2019-03-04T08:02:02.837Z,67.32
2019-03-04T08:03:02.814Z,67.40
2019-03-04T08:04:02.818Z,67.19
2019-03-04T08:05:02.940Z,68.11
2019-03-04T08:06:02.853Z,67.40
2019-03-04T08:07:03.051Z,68.01
2019-03-04T08:08:02.782Z,69.34
2019-03-04T08:09:02.774Z,69.75
2019-03-04T08:10:02.790Z,69.75
2019-03-04T08:11:02.815Z,68.93
2019-03-04T08:12:02.705Z,68.83
2019-03-04T08:13:02.725Z,69.13
2019-03-04T08:14:02.721Z,69.13
2019-03-04T08:15:02.756Z,68.93
2019-03-04T08:16:02.737Z,68.52
2019-03-04T08:17:02.683Z,68.32
2019-03-04T08:18:02.726Z,69.03
2019-03-04T08:19:02.653Z,68.73
2019-03-04T08:20:02.656Z,69.13
2019-03-04T08:21:02.663Z,68.73
2019-03-04T08:22:02.631Z,69.54
2019-03-04T08:23:02.618Z,70.36
2019-03-04T08:24:02.574Z,71.59
2019-03-04T08:25:02.577Z,71.73
2019-03-04T08:26:02.621Z,73.68
2019-03-04T08:27:02.546Z,73.57
2019-03-04T08:28:02.586Z,73.88
2019-03-04T08:29:02.529Z,74.02
2019-03-04T08:30:02.534Z,75.15
2019-03-04T08:31:02.567Z,75.35
2019-03-04T08:32:02.518Z,75.49
2019-03-04T08:33:02.482Z,76.00
2019-03-04T08:34:02.477Z,76.31
2019-03-04T08:35:02.448Z,76.72
2019-03-04T08:36:02.507Z,76.75
2019-03-04T08:37:02.455Z,76.75
2019-03-04T08:38:02.402Z,76.86
2019-03-04T08:39:02.442Z,76.75
2019-03-04T08:40:02.382Z,77.47
2019-03-04T08:41:02.391Z,76.04
2019-03-04T08:42:02.412Z,77.78
2019-03-04T08:43:02.394Z,77.78
2019-03-04T08:44:02.356Z,76.55
2019-03-04T08:45:02.379Z,76.24
2019-03-04T08:46:02.354Z,75.69
2019-03-04T08:47:02.397Z,76.00
2019-03-04T08:48:02.339Z,75.90
2019-03-04T08:49:02.367Z,76.31
2019-03-04T08:50:02.287Z,76.10
2019-03-04T08:51:02.515Z,76.82
2019-03-04T08:52:02.301Z,76.82
2019-03-04T08:53:02.260Z,76.00
2019-03-04T08:54:02.323Z,75.69
2019-03-04T08:55:02.261Z,75.69
2019-03-04T08:56:02.222Z,76.20
2019-03-04T08:57:04.128Z,75.59
2019-03-04T08:58:02.202Z,74.46
2019-03-04T08:59:02.206Z,73.61
2019-03-04T09:00:02.204Z,73.44
2019-03-04T09:01:02.221Z,75.38
2019-03-04T09:02:02.187Z,75.35
2019-03-04T09:03:02.177Z,75.04
2019-03-04T09:04:02.167Z,75.35
2019-03-04T09:05:02.144Z,72.99
2019-03-04T09:06:02.138Z,73.10
2019-03-04T09:07:04.009Z,72.65
2019-03-04T09:08:02.120Z,72.34
2019-03-04T09:09:02.093Z,71.42
2019-03-04T09:10:02.099Z,72.24
2019-03-04T09:11:02.122Z,70.81
2019-03-04T09:12:02.063Z,70.29
2019-03-04T09:13:02.104Z,69.54
2019-03-04T09:14:02.048Z,69.65
2019-03-04T09:15:02.040Z,69.13
2019-03-04T09:16:02.029Z,69.92
2019-03-04T09:17:01.975Z,68.93
2019-03-04T09:18:02.044Z,68.08
2019-03-04T09:19:01.996Z,68.28
2019-03-04T09:20:01.994Z,67.46
2019-03-04T09:21:01.944Z,67.26
2019-03-04T09:22:02.011Z,66.03
2019-03-04T09:23:01.961Z,66.44
2019-03-04T09:24:01.916Z,66.44
2019-03-04T09:25:01.886Z,67.43
2019-03-04T09:26:01.934Z,67.05
2019-03-04T09:27:01.891Z,67.16
2019-03-04T09:28:01.901Z,67.05
2019-03-04T09:29:01.885Z,66.54
2019-03-04T09:30:01.851Z,67.05
2019-03-04T09:31:01.833Z,67.16
2019-03-04T09:32:01.833Z,67.05
2019-03-04T09:33:01.851Z,65.42
2019-03-04T09:34:01.834Z,65.21
2019-03-04T09:35:01.775Z,64.60
2019-03-04T09:36:01.801Z,64.39
2019-03-04T09:37:01.777Z,64.50
2019-03-04T09:38:01.811Z,65.21
2019-03-04T09:39:01.754Z,65.11
2019-03-04T09:40:01.746Z,64.50
2019-03-04T09:41:01.729Z,65.01
2019-03-04T09:42:01.727Z,65.11
2019-03-04T09:43:01.709Z,64.90
2019-03-04T09:44:01.729Z,65.31
2019-03-04T09:45:01.690Z,65.62
2019-03-04T09:46:01.727Z,65.62
2019-03-04T09:47:01.692Z,65.93
2019-03-04T09:48:01.683Z,65.21
2019-03-04T09:49:01.665Z,65.01
2019-03-04T09:50:01.721Z,65.01
2019-03-04T09:51:01.644Z,65.42
2019-03-04T09:52:01.632Z,63.88
2019-03-04T09:53:01.594Z,64.57
2019-03-04T09:54:01.635Z,63.06
2019-03-04T09:55:01.608Z,63.54
2019-03-04T09:56:01.600Z,64.80
2019-03-04T09:57:01.606Z,64.77
2019-03-04T09:58:01.607Z,64.47
2019-03-04T09:59:01.514Z,64.67
2019-03-04T10:00:01.523Z,64.47
2019-03-04T10:01:01.491Z,65.18
2019-03-04T10:02:01.545Z,65.59
2019-03-04T10:03:01.502Z,65.39
2019-03-04T10:04:01.519Z,65.62
2019-03-04T10:05:01.483Z,65.39
2019-03-04T10:06:01.494Z,65.28
2019-03-04T10:07:01.463Z,65.80
2019-03-04T10:08:01.465Z,67.05
2019-03-04T10:09:01.454Z,67.46
2019-03-04T10:10:01.411Z,68.08
2019-03-04T10:11:01.426Z,68.79
2019-03-04T10:12:01.450Z,68.69
2019-03-04T10:13:01.374Z,69.00
2019-03-04T10:14:01.413Z,68.49
2019-03-04T10:15:08.566Z,69.75
2019-03-04T10:16:02.367Z,69.95
2019-03-04T10:17:01.340Z,69.85
2019-03-04T10:18:01.373Z,70.87
2019-03-04T10:19:01.319Z,70.98
2019-03-04T10:20:01.305Z,70.98
2019-03-04T10:21:01.311Z,70.77
2019-03-04T10:22:01.262Z,71.18
2019-03-04T10:23:01.304Z,70.03
2019-03-04T10:24:01.253Z,71.04
2019-03-04T10:25:01.242Z,70.16
2019-03-04T10:26:01.245Z,70.36
2019-03-04T10:27:01.280Z,70.26
2019-03-04T10:28:01.215Z,70.06
2019-03-04T10:29:02.245Z,70.36
2019-03-04T10:30:01.187Z,70.98
2019-03-04T10:31:01.192Z,70.64
2019-03-04T10:32:01.232Z,71.15
2019-03-04T10:33:01.157Z,71.18
2019-03-04T10:34:01.147Z,70.36
2019-03-04T10:35:01.155Z,70.16
2019-03-04T10:36:01.153Z,71.04
2019-03-04T10:37:01.113Z,71.28
2019-03-04T10:38:01.133Z,70.12
2019-03-04T10:39:01.099Z,70.33
2019-03-04T10:40:01.105Z,69.82
2019-03-04T10:41:01.075Z,69.82
2019-03-04T10:42:01.093Z,69.71
2019-03-04T10:43:01.042Z,69.71
2019-03-04T10:44:01.036Z,69.92
2019-03-04T10:45:01.036Z,69.82
2019-03-04T10:46:01.018Z,70.16
2019-03-04T10:47:01.039Z,70.33
2019-03-04T10:48:01.000Z,70.43
2019-03-04T10:49:01.007Z,69.71
2019-03-04T10:50:01.008Z,69.41
2019-03-04T10:51:00.973Z,70.33
2019-03-04T10:52:00.983Z,70.12
2019-03-04T10:53:00.925Z,69.38
2019-03-04T10:54:00.929Z,69.07
2019-03-04T10:55:00.952Z,68.97
2019-03-04T10:56:00.931Z,68.76
2019-03-04T10:57:01.162Z,69.68
2019-03-04T10:58:00.877Z,69.99
2019-03-04T10:59:00.874Z,68.97
2019-03-04T11:00:00.892Z,68.87
2019-03-04T11:01:00.874Z,69.71
2019-03-04T11:02:00.847Z,69.61
2019-03-04T11:03:00.952Z,70.23
2019-03-04T11:04:00.826Z,71.15
2019-03-04T11:05:00.828Z,71.45
2019-03-04T11:06:00.798Z,71.59
2019-03-04T11:07:00.845Z,71.69
2019-03-04T11:08:00.789Z,72.52
2019-03-04T11:09:00.830Z,73.36
2019-03-04T11:10:00.786Z,73.68
2019-03-04T11:11:00.752Z,75.11
2019-03-04T11:12:00.742Z,73.71
2019-03-04T11:13:00.796Z,73.78
2019-03-04T11:14:00.724Z,74.22
2019-03-04T11:15:00.722Z,73.61
2019-03-04T11:16:00.716Z,74.02
2019-03-04T11:17:00.689Z,73.85
2019-03-04T11:18:00.694Z,74.26
2019-03-04T11:19:00.654Z,75.29
2019-03-04T11:20:00.658Z,75.38
2019-03-04T11:21:00.636Z,75.52
2019-03-04T11:22:00.661Z,75.38
2019-03-04T11:23:00.672Z,75.52
2019-03-04T11:24:00.597Z,75.73
2019-03-04T11:25:00.623Z,75.73
2019-03-04T11:26:00.596Z,75.83
2019-03-04T11:27:00.598Z,75.67
2019-03-04T11:28:00.632Z,75.52
2019-03-04T11:29:00.573Z,75.83
2019-03-04T11:30:00.595Z,75.93
2019-03-04T11:31:00.523Z,74.91
2019-03-04T11:32:00.535Z,75.56
2019-03-04T11:33:00.561Z,75.21
2019-03-04T11:34:00.475Z,75.46
2019-03-04T11:35:00.485Z,76.18
2019-03-04T11:36:00.479Z,76.28
2019-03-04T11:37:00.507Z,77.03
2019-03-04T11:38:00.550Z,76.93
2019-03-04T11:39:00.457Z,76.28
2019-03-04T11:40:00.475Z,77.10
2019-03-04T11:41:00.448Z,76.90
2019-03-04T11:42:00.427Z,76.59
2019-03-04T11:43:00.418Z,77.72
2019-03-04T11:44:00.444Z,76.76
2019-03-04T11:45:00.420Z,75.83
2019-03-04T11:46:00.346Z,76.35
2019-03-04T11:47:00.353Z,76.35
2019-03-04T11:48:00.359Z,77.17
2019-03-04T11:49:00.352Z,76.14
2019-03-04T11:50:00.390Z,76.25
2019-03-04T11:51:00.335Z,75.73
2019-03-04T11:52:00.330Z,75.93
2019-03-04T11:53:00.356Z,76.10
2019-03-04T11:54:00.293Z,76.14
2019-03-04T11:55:00.390Z,76.31
2019-03-04T11:56:00.258Z,75.80
2019-03-04T11:57:00.268Z,75.29
2019-03-04T11:58:00.260Z,75.49
2019-03-04T11:59:00.283Z,75.29
2019-03-04T12:00:00.235Z,75.29
2019-03-04T12:01:00.207Z,75.52
2019-03-04T12:02:00.214Z,75.32
2019-03-04T12:03:00.201Z,74.50
2019-03-04T12:04:00.310Z,73.78
2019-03-04T12:05:00.307Z,74.19
2019-03-04T12:06:00.223Z,74.50
2019-03-04T12:07:00.137Z,74.67
2019-03-04T12:08:00.114Z,74.26
2019-03-04T12:09:00.322Z,74.12
2019-03-04T12:10:00.113Z,74.22
2019-03-04T12:11:00.115Z,74.43
2019-03-04T12:12:00.124Z,73.57
2019-03-04T12:13:00.087Z,74.32
2019-03-04T12:14:00.063Z,74.19
2019-03-04T12:15:00.302Z,75.32
2019-03-04T12:16:00.034Z,74.60
2019-03-04T12:17:00.044Z,74.19
2019-03-04T12:18:00.011Z,75.32
2019-03-04T12:19:00.004Z,73.78
2019-03-04T12:20:00.040Z,73.47
2019-03-04T12:21:00.004Z,73.30
2019-03-04T12:22:00.022Z,72.27
2019-03-04T12:23:00.039Z,73.74
2019-03-04T12:23:59.945Z,73.74
2019-03-04T12:24:59.916Z,74.36
2019-03-04T12:25:59.927Z,74.50
2019-03-04T12:26:59.915Z,74.29
2019-03-04T12:27:59.887Z,74.57
2019-03-04T12:28:59.916Z,75.49
2019-03-04T12:29:59.940Z,75.49
2019-03-04T12:30:59.881Z,74.15
2019-03-04T12:31:59.858Z,73.44
2019-03-04T12:32:59.849Z,73.61
2019-03-04T12:33:59.897Z,74.02
2019-03-04T12:34:59.853Z,71.97
2019-03-04T12:35:59.801Z,72.58
2019-03-04T12:36:59.829Z,72.38
2019-03-04T12:37:59.790Z,72.27
2019-03-04T12:38:59.790Z,72.38
2019-03-04T12:39:59.758Z,71.86
2019-03-04T12:40:59.835Z,72.06
2019-03-04T12:41:59.778Z,70.32
2019-03-04T12:42:59.775Z,71.17
2019-03-04T12:43:59.725Z,71.69
2019-03-04T12:44:59.716Z,71.76
2019-03-04T12:45:59.747Z,71.97
2019-03-04T12:46:59.702Z,72.58
2019-03-04T12:47:59.698Z,71.76
2019-03-04T12:48:59.667Z,71.45
2019-03-04T12:49:59.695Z,71.66
2019-03-04T12:50:59.697Z,71.11
2019-03-04T12:51:59.679Z,71.55
2019-03-04T12:52:59.668Z,71.04
2019-03-04T12:53:59.623Z,71.25